sensor_id;sensor_type;location;lat;lon;timestamp;temperature;humidity
3198;DHT22;1611;49.394;11.136;2023-04-25T00:01:45;9.70;57.20
3198;DHT22;1611;49.394;11.136;2023-04-25T00:04:13;9.70;58.00
3198;DHT22;1611;49.394;11.136;2023-04-25T00:06:40;9.70;58.10
3198;DHT22;1611;49.394;11.136;2023-04-25T00:09:06;9.70;59.30
3198;DHT22;1611;49.394;11.136;2023-04-25T00:11:35;9.70;58.00
3198;DHT22;1611;49.394;11.136;2023-04-25T00:14:02;9.60;58.10
3198;DHT22;1611;49.394;11.136;2023-04-25T00:16:30;9.60;58.30
3198;DHT22;1611;49.394;11.136;2023-04-25T00:18:59;9.60;58.10
3198;DHT22;1611;49.394;11.136;2023-04-25T00:21:28;9.60;58.40
3198;DHT22;1611;49.394;11.136;2023-04-25T00:23:56;9.60;58.70
3198;DHT22;1611;49.394;11.136;2023-04-25T00:26:23;9.60;58.70
3198;DHT22;1611;49.394;11.136;2023-04-25T00:28:50;9.60;58.40
3198;DHT22;1611;49.394;11.136;2023-04-25T00:31:17;9.50;57.30
3198;DHT22;1611;49.394;11.136;2023-04-25T00:33:44;9.60;55.30
3198;DHT22;1611;49.394;11.136;2023-04-25T00:36:10;9.60;55.80
3198;DHT22;1611;49.394;11.136;2023-04-25T00:38:39;9.60;57.30
3198;DHT22;1611;49.394;11.136;2023-04-25T00:41:07;9.60;58.00
3198;DHT22;1611;49.394;11.136;2023-04-25T00:43:34;9.60;59.30
3198;DHT22;1611;49.394;11.136;2023-04-25T00:46:02;9.60;60.20
3198;DHT22;1611;49.394;11.136;2023-04-25T00:48:29;9.60;61.00
3198;DHT22;1611;49.394;11.136;2023-04-25T00:50:58;9.60;62.00
3198;DHT22;1611;49.394;11.136;2023-04-25T00:53:27;9.60;63.20
3198;DHT22;1611;49.394;11.136;2023-04-25T00:55:55;9.60;64.30
3198;DHT22;1611;49.394;11.136;2023-04-25T00:58:22;9.60;64.50
3198;DHT22;1611;49.394;11.136;2023-04-25T01:00:50;9.60;65.00
3198;DHT22;1611;49.394;11.136;2023-04-25T01:03:18;9.50;65.50
3198;DHT22;1611;49.394;11.136;2023-04-25T01:05:46;9.50;66.30
3198;DHT22;1611;49.394;11.136;2023-04-25T01:08:13;9.50;66.40
3198;DHT22;1611;49.394;11.136;2023-04-25T01:10:40;9.50;66.90
3198;DHT22;1611;49.394;11.136;2023-04-25T01:13:08;9.50;66.70
3198;DHT22;1611;49.394;11.136;2023-04-25T01:15:35;9.40;67.40
3198;DHT22;1611;49.394;11.136;2023-04-25T01:18:03;9.30;67.40
3198;DHT22;1611;49.394;11.136;2023-04-25T01:20:32;9.30;68.80
3198;DHT22;1611;49.394;11.136;2023-04-25T01:23:00;9.20;68.30
3198;DHT22;1611;49.394;11.136;2023-04-25T01:25:27;9.10;68.20
3198;DHT22;1611;49.394;11.136;2023-04-25T01:27:55;9.10;68.60
3198;DHT22;1611;49.394;11.136;2023-04-25T01:30:22;9.10;67.70
3198;DHT22;1611;49.394;11.136;2023-04-25T01:32:49;9.10;67.10
3198;DHT22;1611;49.394;11.136;2023-04-25T01:35:16;9.10;68.10
3198;DHT22;1611;49.394;11.136;2023-04-25T01:37:43;9.10;69.50
3198;DHT22;1611;49.394;11.136;2023-04-25T01:40:13;9.10;69.00
3198;DHT22;1611;49.394;11.136;2023-04-25T01:42:42;9.00;68.70
3198;DHT22;1611;49.394;11.136;2023-04-25T01:45:10;9.00;68.70
3198;DHT22;1611;49.394;11.136;2023-04-25T01:47:37;9.10;68.00
3198;DHT22;1611;49.394;11.136;2023-04-25T01:50:06;9.10;68.00
3198;DHT22;1611;49.394;11.136;2023-04-25T01:52:33;9.10;68.50
3198;DHT22;1611;49.394;11.136;2023-04-25T01:55:01;9.10;68.30
3198;DHT22;1611;49.394;11.136;2023-04-25T01:57:30;9.10;68.10
3198;DHT22;1611;49.394;11.136;2023-04-25T01:59:59;9.00;68.60
3198;DHT22;1611;49.394;11.136;2023-04-25T02:02:25;9.00;68.20
3198;DHT22;1611;49.394;11.136;2023-04-25T02:04:52;9.00;68.50
3198;DHT22;1611;49.394;11.136;2023-04-25T02:07:19;9.10;68.00
3198;DHT22;1611;49.394;11.136;2023-04-25T02:09:46;9.10;68.10
3198;DHT22;1611;49.394;11.136;2023-04-25T02:12:13;9.00;68.60
3198;DHT22;1611;49.394;11.136;2023-04-25T02:14:41;9.00;68.40
3198;DHT22;1611;49.394;11.136;2023-04-25T02:17:08;9.00;69.00
3198;DHT22;1611;49.394;11.136;2023-04-25T02:19:35;9.00;69.10
3198;DHT22;1611;49.394;11.136;2023-04-25T02:22:02;9.00;69.40
3198;DHT22;1611;49.394;11.136;2023-04-25T02:24:29;9.00;68.90
3198;DHT22;1611;49.394;11.136;2023-04-25T02:26:57;9.00;69.50
3198;DHT22;1611;49.394;11.136;2023-04-25T02:29:24;9.00;69.80
3198;DHT22;1611;49.394;11.136;2023-04-25T02:31:52;9.00;69.80
3198;DHT22;1611;49.394;11.136;2023-04-25T02:34:18;9.00;69.70
3198;DHT22;1611;49.394;11.136;2023-04-25T02:36:45;9.00;69.10
3198;DHT22;1611;49.394;11.136;2023-04-25T02:39:12;9.00;68.30
3198;DHT22;1611;49.394;11.136;2023-04-25T02:41:38;9.00;68.50
3198;DHT22;1611;49.394;11.136;2023-04-25T02:44:05;9.00;68.60
3198;DHT22;1611;49.394;11.136;2023-04-25T02:46:32;8.90;68.90
3198;DHT22;1611;49.394;11.136;2023-04-25T02:49:00;8.90;69.00
3198;DHT22;1611;49.394;11.136;2023-04-25T02:51:27;8.80;68.30
3198;DHT22;1611;49.394;11.136;2023-04-25T02:53:54;8.80;68.20
3198;DHT22;1611;49.394;11.136;2023-04-25T02:56:20;8.80;68.50
3198;DHT22;1611;49.394;11.136;2023-04-25T02:58:47;8.90;69.10
3198;DHT22;1611;49.394;11.136;2023-04-25T03:01:14;8.90;68.90
3198;DHT22;1611;49.394;11.136;2023-04-25T03:03:40;8.80;69.10
3198;DHT22;1611;49.394;11.136;2023-04-25T03:06:09;8.80;69.20
3198;DHT22;1611;49.394;11.136;2023-04-25T03:08:35;8.80;69.10
3198;DHT22;1611;49.394;11.136;2023-04-25T03:11:02;8.70;69.80
3198;DHT22;1611;49.394;11.136;2023-04-25T03:13:29;8.70;69.30
3198;DHT22;1611;49.394;11.136;2023-04-25T03:15:56;8.70;69.20
3198;DHT22;1611;49.394;11.136;2023-04-25T03:18:22;8.60;69.70
3198;DHT22;1611;49.394;11.136;2023-04-25T03:20:49;8.50;69.60
3198;DHT22;1611;49.394;11.136;2023-04-25T03:23:17;8.60;69.20
3198;DHT22;1611;49.394;11.136;2023-04-25T03:25:44;8.60;69.60
3198;DHT22;1611;49.394;11.136;2023-04-25T03:28:11;8.50;69.80
3198;DHT22;1611;49.394;11.136;2023-04-25T03:30:37;8.50;70.10
3198;DHT22;1611;49.394;11.136;2023-04-25T03:33:04;8.50;69.70
3198;DHT22;1611;49.394;11.136;2023-04-25T03:35:31;8.50;69.70
3198;DHT22;1611;49.394;11.136;2023-04-25T03:37:58;8.50;69.60
3198;DHT22;1611;49.394;11.136;2023-04-25T03:40:26;8.40;69.80
3198;DHT22;1611;49.394;11.136;2023-04-25T03:42:52;8.50;69.40
3198;DHT22;1611;49.394;11.136;2023-04-25T03:45:19;8.40;69.30
3198;DHT22;1611;49.394;11.136;2023-04-25T03:47:46;8.30;69.50
3198;DHT22;1611;49.394;11.136;2023-04-25T03:50:13;8.40;69.80
3198;DHT22;1611;49.394;11.136;2023-04-25T03:52:39;8.40;69.60
3198;DHT22;1611;49.394;11.136;2023-04-25T03:55:07;8.40;69.50
3198;DHT22;1611;49.394;11.136;2023-04-25T03:57:35;8.40;69.40
3198;DHT22;1611;49.394;11.136;2023-04-25T04:00:03;8.40;68.90
3198;DHT22;1611;49.394;11.136;2023-04-25T04:02:30;8.30;69.50
3198;DHT22;1611;49.394;11.136;2023-04-25T04:04:58;8.30;69.40
3198;DHT22;1611;49.394;11.136;2023-04-25T04:07:25;8.30;69.10
3198;DHT22;1611;49.394;11.136;2023-04-25T04:09:52;8.30;69.40
3198;DHT22;1611;49.394;11.136;2023-04-25T04:12:18;8.30;69.30
3198;DHT22;1611;49.394;11.136;2023-04-25T04:14:46;8.20;69.30
3198;DHT22;1611;49.394;11.136;2023-04-25T04:17:13;8.20;69.00
3198;DHT22;1611;49.394;11.136;2023-04-25T04:19:40;8.20;69.20
3198;DHT22;1611;49.394;11.136;2023-04-25T04:22:07;8.20;69.60
3198;DHT22;1611;49.394;11.136;2023-04-25T04:24:34;8.10;68.60
3198;DHT22;1611;49.394;11.136;2023-04-25T04:27:00;8.10;68.20
3198;DHT22;1611;49.394;11.136;2023-04-25T04:29:28;8.10;68.50
3198;DHT22;1611;49.394;11.136;2023-04-25T04:31:56;8.20;68.70
3198;DHT22;1611;49.394;11.136;2023-04-25T04:34:23;8.20;68.90
3198;DHT22;1611;49.394;11.136;2023-04-25T04:36:51;8.20;68.80
3198;DHT22;1611;49.394;11.136;2023-04-25T04:39:17;8.20;69.00
3198;DHT22;1611;49.394;11.136;2023-04-25T04:41:44;8.20;68.40
3198;DHT22;1611;49.394;11.136;2023-04-25T04:44:11;8.30;67.70
3198;DHT22;1611;49.394;11.136;2023-04-25T04:46:39;8.40;67.50
3198;DHT22;1611;49.394;11.136;2023-04-25T04:49:09;8.50;67.80
3198;DHT22;1611;49.394;11.136;2023-04-25T04:51:36;8.60;67.50
3198;DHT22;1611;49.394;11.136;2023-04-25T04:54:03;8.70;66.80
3198;DHT22;1611;49.394;11.136;2023-04-25T04:56:30;8.80;66.00
3198;DHT22;1611;49.394;11.136;2023-04-25T04:58:58;8.80;64.30
3198;DHT22;1611;49.394;11.136;2023-04-25T05:01:25;8.80;64.30
3198;DHT22;1611;49.394;11.136;2023-04-25T05:03:52;8.80;61.20
3198;DHT22;1611;49.394;11.136;2023-04-25T05:06:20;8.80;61.60
3198;DHT22;1611;49.394;11.136;2023-04-25T05:08:47;8.90;61.50
3198;DHT22;1611;49.394;11.136;2023-04-25T05:11:14;8.90;60.80
3198;DHT22;1611;49.394;11.136;2023-04-25T05:13:41;8.90;60.30
3198;DHT22;1611;49.394;11.136;2023-04-25T05:16:08;9.00;60.20
3198;DHT22;1611;49.394;11.136;2023-04-25T05:18:34;9.00;60.00
3198;DHT22;1611;49.394;11.136;2023-04-25T05:21:01;9.00;60.70
3198;DHT22;1611;49.394;11.136;2023-04-25T05:23:30;9.10;60.50
3198;DHT22;1611;49.394;11.136;2023-04-25T05:25:57;9.20;60.10
3198;DHT22;1611;49.394;11.136;2023-04-25T05:28:23;9.30;59.80
3198;DHT22;1611;49.394;11.136;2023-04-25T05:30:50;9.40;60.00
3198;DHT22;1611;49.394;11.136;2023-04-25T05:33:18;9.50;59.10
3198;DHT22;1611;49.394;11.136;2023-04-25T05:35:45;9.60;59.10
3198;DHT22;1611;49.394;11.136;2023-04-25T05:38:11;9.60;57.50
3198;DHT22;1611;49.394;11.136;2023-04-25T05:40:40;9.70;57.10
3198;DHT22;1611;49.394;11.136;2023-04-25T05:43:06;9.80;58.00
3198;DHT22;1611;49.394;11.136;2023-04-25T05:45:33;9.80;57.20
3198;DHT22;1611;49.394;11.136;2023-04-25T05:48:00;9.90;57.30
3198;DHT22;1611;49.394;11.136;2023-04-25T05:50:27;9.80;56.30
3198;DHT22;1611;49.394;11.136;2023-04-25T05:52:53;9.80;56.80
3198;DHT22;1611;49.394;11.136;2023-04-25T05:55:20;9.80;56.80
3198;DHT22;1611;49.394;11.136;2023-04-25T05:57:48;9.80;57.10
3198;DHT22;1611;49.394;11.136;2023-04-25T06:00:15;9.80;57.80
3198;DHT22;1611;49.394;11.136;2023-04-25T06:02:42;9.90;57.00
3198;DHT22;1611;49.394;11.136;2023-04-25T06:05:09;9.90;58.10
3198;DHT22;1611;49.394;11.136;2023-04-25T06:07:36;9.90;57.40
3198;DHT22;1611;49.394;11.136;2023-04-25T06:10:03;9.90;55.80
3198;DHT22;1611;49.394;11.136;2023-04-25T06:12:32;9.90;56.00
3198;DHT22;1611;49.394;11.136;2023-04-25T06:15:00;9.90;56.10
3198;DHT22;1611;49.394;11.136;2023-04-25T06:17:27;9.90;56.40
3198;DHT22;1611;49.394;11.136;2023-04-25T06:19:54;9.90;56.70
3198;DHT22;1611;49.394;11.136;2023-04-25T06:22:21;10.00;56.40
3198;DHT22;1611;49.394;11.136;2023-04-25T06:24:47;9.90;56.60
3198;DHT22;1611;49.394;11.136;2023-04-25T06:27:14;9.80;56.40
3198;DHT22;1611;49.394;11.136;2023-04-25T06:29:41;9.90;56.90
3198;DHT22;1611;49.394;11.136;2023-04-25T06:32:09;9.90;57.40
3198;DHT22;1611;49.394;11.136;2023-04-25T06:34:36;10.00;56.60
3198;DHT22;1611;49.394;11.136;2023-04-25T06:37:02;10.00;55.90
3198;DHT22;1611;49.394;11.136;2023-04-25T06:39:29;9.90;54.70
3198;DHT22;1611;49.394;11.136;2023-04-25T06:41:56;9.90;56.40
3198;DHT22;1611;49.394;11.136;2023-04-25T06:44:22;9.90;56.10
3198;DHT22;1611;49.394;11.136;2023-04-25T06:46:51;10.00;56.20
3198;DHT22;1611;49.394;11.136;2023-04-25T06:49:19;9.90;56.70
3198;DHT22;1611;49.394;11.136;2023-04-25T06:51:46;9.90;56.80
3198;DHT22;1611;49.394;11.136;2023-04-25T06:54:13;9.90;57.30
3198;DHT22;1611;49.394;11.136;2023-04-25T06:56:40;9.90;58.10
3198;DHT22;1611;49.394;11.136;2023-04-25T06:59:06;9.90;58.10
3198;DHT22;1611;49.394;11.136;2023-04-25T07:01:33;9.90;59.50
3198;DHT22;1611;49.394;11.136;2023-04-25T07:04:00;9.80;60.80
3198;DHT22;1611;49.394;11.136;2023-04-25T07:06:28;9.70;62.00
3198;DHT22;1611;49.394;11.136;2023-04-25T07:08:56;9.60;60.10
3198;DHT22;1611;49.394;11.136;2023-04-25T07:11:23;9.60;60.50
3198;DHT22;1611;49.394;11.136;2023-04-25T07:13:50;9.60;60.20
3198;DHT22;1611;49.394;11.136;2023-04-25T07:16:17;9.50;60.60
3198;DHT22;1611;49.394;11.136;2023-04-25T07:18:43;9.50;60.70
3198;DHT22;1611;49.394;11.136;2023-04-25T07:21:11;9.50;61.30
3198;DHT22;1611;49.394;11.136;2023-04-25T07:23:39;9.60;60.20
3198;DHT22;1611;49.394;11.136;2023-04-25T07:26:06;9.60;59.80
3198;DHT22;1611;49.394;11.136;2023-04-25T07:28:33;9.70;59.10
3198;DHT22;1611;49.394;11.136;2023-04-25T07:31:00;9.90;59.70
3198;DHT22;1611;49.394;11.136;2023-04-25T07:33:27;9.90;59.80
3198;DHT22;1611;49.394;11.136;2023-04-25T07:35:54;9.80;57.60
3198;DHT22;1611;49.394;11.136;2023-04-25T07:38:21;9.80;58.10
3198;DHT22;1611;49.394;11.136;2023-04-25T07:40:49;9.90;57.60
3198;DHT22;1611;49.394;11.136;2023-04-25T07:43:16;10.00;59.00
3198;DHT22;1611;49.394;11.136;2023-04-25T07:45:43;10.00;58.50
3198;DHT22;1611;49.394;11.136;2023-04-25T07:48:10;9.90;56.50
3198;DHT22;1611;49.394;11.136;2023-04-25T07:50:36;9.80;55.30
3198;DHT22;1611;49.394;11.136;2023-04-25T07:53:03;9.60;56.40
3198;DHT22;1611;49.394;11.136;2023-04-25T07:55:30;9.40;56.70
3198;DHT22;1611;49.394;11.136;2023-04-25T07:57:58;9.30;57.50
3198;DHT22;1611;49.394;11.136;2023-04-25T08:00:25;9.20;55.90
3198;DHT22;1611;49.394;11.136;2023-04-25T08:02:52;9.20;56.00
3198;DHT22;1611;49.394;11.136;2023-04-25T08:05:18;9.20;55.80
3198;DHT22;1611;49.394;11.136;2023-04-25T08:07:45;9.20;57.10
3198;DHT22;1611;49.394;11.136;2023-04-25T08:10:12;9.20;57.10
3198;DHT22;1611;49.394;11.136;2023-04-25T08:12:38;9.20;57.60
3198;DHT22;1611;49.394;11.136;2023-04-25T08:15:08;9.20;56.60
3198;DHT22;1611;49.394;11.136;2023-04-25T08:17:35;9.20;57.50
3198;DHT22;1611;49.394;11.136;2023-04-25T08:20:02;9.10;59.10
3198;DHT22;1611;49.394;11.136;2023-04-25T08:22:31;9.20;60.00
3198;DHT22;1611;49.394;11.136;2023-04-25T08:24:58;9.30;60.10
3198;DHT22;1611;49.394;11.136;2023-04-25T08:27:24;9.40;59.80
3198;DHT22;1611;49.394;11.136;2023-04-25T08:29:51;9.30;59.70
3198;DHT22;1611;49.394;11.136;2023-04-25T08:32:19;9.30;57.40
3198;DHT22;1611;49.394;11.136;2023-04-25T08:34:47;9.30;59.20
3198;DHT22;1611;49.394;11.136;2023-04-25T08:37:14;9.40;57.90
3198;DHT22;1611;49.394;11.136;2023-04-25T08:39:41;9.50;56.70
3198;DHT22;1611;49.394;11.136;2023-04-25T08:42:07;9.60;57.40
3198;DHT22;1611;49.394;11.136;2023-04-25T08:44:34;9.70;54.60
3198;DHT22;1611;49.394;11.136;2023-04-25T08:47:02;9.90;56.50
3198;DHT22;1611;49.394;11.136;2023-04-25T08:49:32;9.80;56.90
3198;DHT22;1611;49.394;11.136;2023-04-25T08:52:00;10.00;55.10
3198;DHT22;1611;49.394;11.136;2023-04-25T08:54:28;10.30;54.50
3198;DHT22;1611;49.394;11.136;2023-04-25T08:56:57;10.30;49.60
3198;DHT22;1611;49.394;11.136;2023-04-25T08:59:24;10.60;49.60
3198;DHT22;1611;49.394;11.136;2023-04-25T09:01:50;10.80;50.80
3198;DHT22;1611;49.394;11.136;2023-04-25T09:04:18;10.90;48.90
3198;DHT22;1611;49.394;11.136;2023-04-25T09:06:46;11.10;47.70
3198;DHT22;1611;49.394;11.136;2023-04-25T09:09:12;11.30;47.20
3198;DHT22;1611;49.394;11.136;2023-04-25T09:11:39;11.50;47.50
3198;DHT22;1611;49.394;11.136;2023-04-25T09:14:14;11.70;46.70
3198;DHT22;1611;49.394;11.136;2023-04-25T09:16:59;11.80;44.60
3198;DHT22;1611;49.394;11.136;2023-04-25T09:19:28;11.80;47.90
3198;DHT22;1611;49.394;11.136;2023-04-25T09:21:57;12.00;44.80
3198;DHT22;1611;49.394;11.136;2023-04-25T09:24:31;11.90;44.50
3198;DHT22;1611;49.394;11.136;2023-04-25T09:26:58;11.70;44.20
3198;DHT22;1611;49.394;11.136;2023-04-25T09:29:30;11.60;46.00
3198;DHT22;1611;49.394;11.136;2023-04-25T09:32:17;11.40;45.30
3198;DHT22;1611;49.394;11.136;2023-04-25T09:34:46;11.30;47.50
3198;DHT22;1611;49.394;11.136;2023-04-25T09:37:19;11.20;48.00
3198;DHT22;1611;49.394;11.136;2023-04-25T09:39:46;11.20;49.40
3198;DHT22;1611;49.394;11.136;2023-04-25T09:42:14;11.30;49.00
3198;DHT22;1611;49.394;11.136;2023-04-25T09:44:45;11.30;47.90
3198;DHT22;1611;49.394;11.136;2023-04-25T09:47:13;11.40;47.80
3198;DHT22;1611;49.394;11.136;2023-04-25T09:49:41;11.60;49.30
3198;DHT22;1611;49.394;11.136;2023-04-25T09:52:09;11.80;47.60
3198;DHT22;1611;49.394;11.136;2023-04-25T09:54:37;12.00;44.60
3198;DHT22;1611;49.394;11.136;2023-04-25T09:57:10;12.30;44.50
3198;DHT22;1611;49.394;11.136;2023-04-25T09:59:41;12.40;41.60
3198;DHT22;1611;49.394;11.136;2023-04-25T10:02:09;12.30;40.00
3198;DHT22;1611;49.394;11.136;2023-04-25T10:04:38;12.40;42.50
3198;DHT22;1611;49.394;11.136;2023-04-25T10:07:05;12.70;39.90
3198;DHT22;1611;49.394;11.136;2023-04-25T10:09:33;13.20;40.40
3198;DHT22;1611;49.394;11.136;2023-04-25T10:12:05;13.30;37.70
3198;DHT22;1611;49.394;11.136;2023-04-25T10:14:32;13.10;35.20
3198;DHT22;1611;49.394;11.136;2023-04-25T10:17:00;12.90;37.50
3198;DHT22;1611;49.394;11.136;2023-04-25T10:19:32;12.80;37.90
3198;DHT22;1611;49.394;11.136;2023-04-25T10:22:04;12.70;38.10
3198;DHT22;1611;49.394;11.136;2023-04-25T10:24:32;12.60;37.70
3198;DHT22;1611;49.394;11.136;2023-04-25T10:26:59;12.80;38.10
3198;DHT22;1611;49.394;11.136;2023-04-25T10:29:28;13.00;37.30
3198;DHT22;1611;49.394;11.136;2023-04-25T10:31:55;13.00;38.40
3198;DHT22;1611;49.394;11.136;2023-04-25T10:34:38;13.10;37.90
3198;DHT22;1611;49.394;11.136;2023-04-25T10:37:08;13.10;37.60
3198;DHT22;1611;49.394;11.136;2023-04-25T10:39:35;13.00;36.30
3198;DHT22;1611;49.394;11.136;2023-04-25T10:42:02;13.30;37.70
3198;DHT22;1611;49.394;11.136;2023-04-25T10:44:31;13.50;36.60
3198;DHT22;1611;49.394;11.136;2023-04-25T10:46:59;14.00;37.40
3198;DHT22;1611;49.394;11.136;2023-04-25T10:49:33;14.40;32.70
3198;DHT22;1611;49.394;11.136;2023-04-25T10:52:25;14.20;32.30
3198;DHT22;1611;49.394;11.136;2023-04-25T10:54:55;14.10;32.90
3198;DHT22;1611;49.394;11.136;2023-04-25T10:57:30;13.90;33.50
3198;DHT22;1611;49.394;11.136;2023-04-25T11:00:05;13.60;32.70
3198;DHT22;1611;49.394;11.136;2023-04-25T11:02:37;13.50;34.00
3198;DHT22;1611;49.394;11.136;2023-04-25T11:05:05;13.40;33.10
3198;DHT22;1611;49.394;11.136;2023-04-25T11:07:37;13.30;32.90
3198;DHT22;1611;49.394;11.136;2023-04-25T11:10:05;13.60;33.10
3198;DHT22;1611;49.394;11.136;2023-04-25T11:12:32;14.10;30.30
3198;DHT22;1611;49.394;11.136;2023-04-25T11:15:02;14.40;27.70
3198;DHT22;1611;49.394;11.136;2023-04-25T11:17:29;14.50;27.10
3198;DHT22;1611;49.394;11.136;2023-04-25T11:19:56;14.40;26.10
3198;DHT22;1611;49.394;11.136;2023-04-25T11:22:23;14.10;24.40
3198;DHT22;1611;49.394;11.136;2023-04-25T11:24:50;13.80;27.00
3198;DHT22;1611;49.394;11.136;2023-04-25T11:27:17;13.60;27.20
3198;DHT22;1611;49.394;11.136;2023-04-25T11:29:44;13.50;26.80
3198;DHT22;1611;49.394;11.136;2023-04-25T11:32:14;13.70;27.90
3198;DHT22;1611;49.394;11.136;2023-04-25T11:34:44;14.30;27.00
3198;DHT22;1611;49.394;11.136;2023-04-25T11:37:11;14.70;24.50
3198;DHT22;1611;49.394;11.136;2023-04-25T11:39:42;14.60;25.60
3198;DHT22;1611;49.394;11.136;2023-04-25T11:42:10;14.40;25.90
3198;DHT22;1611;49.394;11.136;2023-04-25T11:44:38;14.00;25.30
3198;DHT22;1611;49.394;11.136;2023-04-25T11:47:05;13.60;26.50
3198;DHT22;1611;49.394;11.136;2023-04-25T11:49:33;13.50;28.20
3198;DHT22;1611;49.394;11.136;2023-04-25T11:52:01;13.40;26.30
3198;DHT22;1611;49.394;11.136;2023-04-25T11:54:27;13.70;26.50
3198;DHT22;1611;49.394;11.136;2023-04-25T11:56:54;14.00;24.90
3198;DHT22;1611;49.394;11.136;2023-04-25T11:59:24;14.20;25.10
3198;DHT22;1611;49.394;11.136;2023-04-25T12:01:51;14.60;25.00
3198;DHT22;1611;49.394;11.136;2023-04-25T12:04:20;14.60;26.20
3198;DHT22;1611;49.394;11.136;2023-04-25T12:06:50;14.90;25.40
3198;DHT22;1611;49.394;11.136;2023-04-25T12:09:18;15.50;23.20
3198;DHT22;1611;49.394;11.136;2023-04-25T12:11:47;15.30;21.90
3198;DHT22;1611;49.394;11.136;2023-04-25T12:14:21;14.90;23.60
3198;DHT22;1611;49.394;11.136;2023-04-25T12:16:50;14.90;22.30
3198;DHT22;1611;49.394;11.136;2023-04-25T12:19:18;15.00;22.70
3198;DHT22;1611;49.394;11.136;2023-04-25T12:21:45;15.70;20.50
3198;DHT22;1611;49.394;11.136;2023-04-25T12:24:15;16.30;19.70
3198;DHT22;1611;49.394;11.136;2023-04-25T12:26:49;16.40;19.20
3198;DHT22;1611;49.394;11.136;2023-04-25T12:29:19;16.50;19.20
3198;DHT22;1611;49.394;11.136;2023-04-25T12:31:46;16.30;18.90
3198;DHT22;1611;49.394;11.136;2023-04-25T12:34:12;15.70;20.00
3198;DHT22;1611;49.394;11.136;2023-04-25T12:36:40;15.30;21.50
3198;DHT22;1611;49.394;11.136;2023-04-25T12:39:07;14.80;22.30
3198;DHT22;1611;49.394;11.136;2023-04-25T12:41:35;14.40;22.90
3198;DHT22;1611;49.394;11.136;2023-04-25T12:44:03;14.00;24.00
3198;DHT22;1611;49.394;11.136;2023-04-25T12:46:30;13.90;26.00
3198;DHT22;1611;49.394;11.136;2023-04-25T12:48:56;13.90;25.90
3198;DHT22;1611;49.394;11.136;2023-04-25T12:51:23;13.60;25.40
3198;DHT22;1611;49.394;11.136;2023-04-25T12:53:51;13.70;26.60
3198;DHT22;1611;49.394;11.136;2023-04-25T12:56:18;13.70;26.40
3198;DHT22;1611;49.394;11.136;2023-04-25T12:58:46;13.70;24.40
3198;DHT22;1611;49.394;11.136;2023-04-25T13:01:13;13.60;24.20
3198;DHT22;1611;49.394;11.136;2023-04-25T13:03:40;13.30;25.00
3198;DHT22;1611;49.394;11.136;2023-04-25T13:06:07;13.10;26.60
3198;DHT22;1611;49.394;11.136;2023-04-25T13:08:34;13.00;26.90
3198;DHT22;1611;49.394;11.136;2023-04-25T13:11:02;13.10;27.50
3198;DHT22;1611;49.394;11.136;2023-04-25T13:13:29;13.10;27.30
3198;DHT22;1611;49.394;11.136;2023-04-25T13:15:58;13.10;26.70
3198;DHT22;1611;49.394;11.136;2023-04-25T13:18:25;13.40;26.90
3198;DHT22;1611;49.394;11.136;2023-04-25T13:20:52;13.40;25.30
3198;DHT22;1611;49.394;11.136;2023-04-25T13:23:19;13.40;25.30
3198;DHT22;1611;49.394;11.136;2023-04-25T13:25:46;13.50;25.70
3198;DHT22;1611;49.394;11.136;2023-04-25T13:28:13;13.60;25.00
3198;DHT22;1611;49.394;11.136;2023-04-25T13:30:41;13.80;24.50
3198;DHT22;1611;49.394;11.136;2023-04-25T13:33:10;14.10;26.30
3198;DHT22;1611;49.394;11.136;2023-04-25T13:35:37;14.70;25.10
3198;DHT22;1611;49.394;11.136;2023-04-25T13:38:04;15.50;22.70
3198;DHT22;1611;49.394;11.136;2023-04-25T13:40:31;15.70;22.00
3198;DHT22;1611;49.394;11.136;2023-04-25T13:42:58;15.50;21.20
3198;DHT22;1611;49.394;11.136;2023-04-25T13:45:28;15.30;20.70
3198;DHT22;1611;49.394;11.136;2023-04-25T13:47:55;15.10;22.20
3198;DHT22;1611;49.394;11.136;2023-04-25T13:50:23;14.50;22.40
3198;DHT22;1611;49.394;11.136;2023-04-25T13:52:50;14.30;22.90
3198;DHT22;1611;49.394;11.136;2023-04-25T13:55:17;14.20;25.60
3198;DHT22;1611;49.394;11.136;2023-04-25T13:57:44;14.20;23.90
3198;DHT22;1611;49.394;11.136;2023-04-25T14:00:12;14.00;24.40
3198;DHT22;1611;49.394;11.136;2023-04-25T14:02:39;13.50;25.50
3198;DHT22;1611;49.394;11.136;2023-04-25T14:05:06;13.20;25.80
3198;DHT22;1611;49.394;11.136;2023-04-25T14:07:36;13.10;27.30
3198;DHT22;1611;49.394;11.136;2023-04-25T14:10:03;12.80;26.80
3198;DHT22;1611;49.394;11.136;2023-04-25T14:12:30;12.70;28.30
3198;DHT22;1611;49.394;11.136;2023-04-25T14:14:57;12.60;28.70
3198;DHT22;1611;49.394;11.136;2023-04-25T14:17:24;12.40;28.50
3198;DHT22;1611;49.394;11.136;2023-04-25T14:19:51;12.40;28.80
3198;DHT22;1611;49.394;11.136;2023-04-25T14:22:18;12.40;29.90
3198;DHT22;1611;49.394;11.136;2023-04-25T14:24:46;12.50;30.50
3198;DHT22;1611;49.394;11.136;2023-04-25T14:27:13;12.70;28.70
3198;DHT22;1611;49.394;11.136;2023-04-25T14:29:40;12.70;28.30
3198;DHT22;1611;49.394;11.136;2023-04-25T14:32:07;12.70;27.70
3198;DHT22;1611;49.394;11.136;2023-04-25T14:34:34;12.60;28.40
3198;DHT22;1611;49.394;11.136;2023-04-25T14:37:00;12.60;28.60
3198;DHT22;1611;49.394;11.136;2023-04-25T14:39:27;12.50;28.20
3198;DHT22;1611;49.394;11.136;2023-04-25T14:41:55;12.50;28.80
3198;DHT22;1611;49.394;11.136;2023-04-25T14:44:23;12.40;29.00
3198;DHT22;1611;49.394;11.136;2023-04-25T14:46:50;12.30;29.60
3198;DHT22;1611;49.394;11.136;2023-04-25T14:49:17;12.00;30.10
3198;DHT22;1611;49.394;11.136;2023-04-25T14:51:44;11.90;30.80
3198;DHT22;1611;49.394;11.136;2023-04-25T14:54:11;11.80;31.00
3198;DHT22;1611;49.394;11.136;2023-04-25T14:56:38;11.80;32.50
3198;DHT22;1611;49.394;11.136;2023-04-25T14:59:06;11.80;33.00
3198;DHT22;1611;49.394;11.136;2023-04-25T15:01:33;11.70;33.20
3198;DHT22;1611;49.394;11.136;2023-04-25T15:04:00;11.70;31.80
3198;DHT22;1611;49.394;11.136;2023-04-25T15:06:27;11.70;31.50
3198;DHT22;1611;49.394;11.136;2023-04-25T15:08:54;11.70;32.20
3198;DHT22;1611;49.394;11.136;2023-04-25T15:11:22;11.70;32.70
3198;DHT22;1611;49.394;11.136;2023-04-25T15:13:49;11.80;32.50
3198;DHT22;1611;49.394;11.136;2023-04-25T15:16:17;11.80;32.50
3198;DHT22;1611;49.394;11.136;2023-04-25T15:18:44;11.90;33.50
3198;DHT22;1611;49.394;11.136;2023-04-25T15:21:11;12.00;32.50
3198;DHT22;1611;49.394;11.136;2023-04-25T15:23:37;12.10;32.30
3198;DHT22;1611;49.394;11.136;2023-04-25T15:26:04;12.20;31.40
3198;DHT22;1611;49.394;11.136;2023-04-25T15:28:31;12.40;32.40
3198;DHT22;1611;49.394;11.136;2023-04-25T15:30:59;12.50;32.20
3198;DHT22;1611;49.394;11.136;2023-04-25T15:33:27;12.60;29.90
3198;DHT22;1611;49.394;11.136;2023-04-25T15:35:54;12.80;31.10
3198;DHT22;1611;49.394;11.136;2023-04-25T15:38:23;12.90;29.10
3198;DHT22;1611;49.394;11.136;2023-04-25T15:40:49;12.60;28.30
3198;DHT22;1611;49.394;11.136;2023-04-25T15:43:17;12.50;28.70
3198;DHT22;1611;49.394;11.136;2023-04-25T15:45:44;12.40;30.30
3198;DHT22;1611;49.394;11.136;2023-04-25T15:48:11;12.30;30.70
3198;DHT22;1611;49.394;11.136;2023-04-25T15:50:40;12.20;31.40
3198;DHT22;1611;49.394;11.136;2023-04-25T15:53:07;12.20;31.70
3198;DHT22;1611;49.394;11.136;2023-04-25T15:55:33;12.10;31.80
3198;DHT22;1611;49.394;11.136;2023-04-25T15:58:01;12.10;30.80